Nederlandse vliegveldverwachtingen (TAF)

Luchtvaartmeteorologische informatie voor operationeel gebruik en vluchtvoorbereiding is beschikbaar op www.luchtvaartmeteo.nl.

ZCZC
FT251100 EHLE     LELYSTAD/LELYSTAD   NLD   -3 m.
TAF EHLE 251100Z 2512/2618 26005KT 9999 SCT020
    TEMPO 2512/2521 VRB15G25KT 4000 SHRA TSRA SCT020CB
    PROB30 TEMPO 2512/2518 2000 TSRAGR SCT012 BKN018CB
    BECMG 2520/2522 4000 BR
    PROB30 TEMPO 2521/2606 1500 BCFG
    BECMG 2606/2608 9999 NSW
    TEMPO 2610/2618 4000 SHRA TSRA SCT010 SCT015CB=

ZCZC
FT251100 EHAM     AMSTERDAM/SCHIPHOL   NLD   -3 m.
TAF EHAM 251101Z 2512/2618 26005KT 9999 SCT020
    TEMPO 2512/2521 VRB15G25KT 4000 SHRA TSRA SCT020CB
    PROB30 TEMPO 2512/2518 2000 TSRAGR SCT012 BKN018CB
    BECMG 2520/2522 4000 BR
    PROB30 TEMPO 2521/2606 1500 BCFG
    BECMG 2606/2608 9999 NSW
    TEMPO 2609/2618 4000 SHRA TSRA SCT010 SCT015CB=

ZCZC
FT251100 EHRD     ROTTERDAM/THE HAGUE AIRPORT   NLD   -5 m.
TAF EHRD 251100Z 2512/2618 23005KT 9999 SCT020
    TEMPO 2512/2521 VRB15G25KT 4000 SHRA TSRA SCT020CB
    PROB30 TEMPO 2512/2518 2000 TSRAGR SCT012 BKN018CB
    BECMG 2520/2522 4000 BR
    PROB30 TEMPO 2521/2606 1500 BCFG
    BECMG 2606/2608 9999 NSW
    TEMPO 2609/2618 4000 SHRA TSRA SCT010 SCT020CB=

ZCZC
FT251100 EHGG     GRONINGEN/EELDE   NLD   5 m.
TAF EHGG 251116Z 2512/2618 22006KT 9999 SCT020
    TEMPO 2512/2519 VRB15G25KT 4000 SHRA TSRA SCT025CB BKN030
    PROB30 TEMPO 2512/2518 2000 TSRAGR
    BECMG 2521/2524 4000 BR
    PROB40 TEMPO 2523/2606 0800 BCFG
    BECMG 2605/2607 9999 NSW
    TEMPO 2611/2618 4000 SHRA TSRA SCT020CB
    PROB30 TEMPO 2611/2618 2000 TSRAGR BKN020CB=

ZCZC
FT251100 EHBK     MAASTRICHT/MAASTRICHT-AACHEN   NLD   114 m.
TAF EHBK 251116Z 2512/2618 19005KT 9999 SCT040
    TEMPO 2512/2519 VRB15G25KT 4000 SHRA TSRA SCT035CB
    PROB30 TEMPO 2512/2518 2000 TSRAGR BKN030CB
    TEMPO 2611/2618 VRB15G25KT 4000 SHRA TSRA SCT030CB
    PROB30 TEMPO 2612/2618 2000 TSRAGR BKN025CB=

ZCZC
FT251100 EHEH     EINDHOVEN/EINDHOVEN   NLD   22 m.
TAF EHEH 251138Z 2512/2618 19010KT 9999 SCT035
    TEMPO 2512/2520 20015G30KT 4000 SHRA TSRA SCT030CB SCT050
    PROB30 TEMPO 2513/2519 2000 TSRAGR SCT015 BKN025CB
    BECMG 2518/2521 VRB03KT
    BECMG 2521/2523 3000 BR MIFG
    PROB40 2523/2605 1200 BCFG
    BECMG 2605/2607 20008KT 9999
    TEMPO 2607/2610 SCT010 BKN015
    PROB40 TEMPO 2611/2618 23015G25KT 4000 SHRA TSRA SCT020CB
    BKN030=

ZCZC
FC251300 EHKD     DE KOOY/DE KOOY   NLD   1 m.
TAF EHKD 251226Z 2513/2601 24008KT 9999 SCT022
    PROB30 TEMPO 2513/2520 24012G25KT 4000 SHRA TSRA FEW015
    SCT020CB BKN050
    BECMG 2517/2520 12005KT
    BECMG 2520/2523 4000 BR
    PROB30 2523/2601 1200 BCFG=

ZCZC
FC251300 EHGR     GILZE-RIJEN/GILZE-RIJEN   NLD   14 m.
TAF EHGR 251300Z NIL=

ZCZC
FC251300 EHLW     LEEUWARDEN/LEEUWARDEN   NLD   1 m.
TAF EHLW 251222Z 2513/2601 23010KT 9999 SCT030
    TEMPO 2513/2520 23012G25KT 4000 SHRA TSRA FEW015 SCT020CB
    BKN050
    BECMG 2516/2519 12005KT
    BECMG 2520/2522 4000 BR
    PROB30 2523/2601 1200 BCFG=

ZCZC
FC251300 EHVK     VOLKEL/VOLKEL   NLD   21 m.
TAF EHVK 251221Z 2513/2601 19010KT 9999 SCT035
    TEMPO 2513/2520 20015G30KT 4000 SHRA TSRA SCT030CB SCT050
    PROB30 TEMPO 2513/2519 2000 TSRAGR SCT015 BKN025CB
    BECMG 2518/2521 VRB03KT
    BECMG 2521/2523 3000 BR MIFG
    PROB40 2523/2601 1200 BCFG=

ZCZC
FC251300 EHWO     WOENSDRECHT/WOENSDRECHT   NLD   19 m.
TAF EHWO 251300Z NIL=

25/07/2021 15.15 uur LT